sensor_id;sensor_type;location;lat;lon;timestamp;pressure;altitude;pressure_sealevel;temperature;humidity
53754;BME280;39667;52.274;20.964;2023-02-13T00:01:00;102027.88;;;3.51;86.74
53754;BME280;39667;52.274;20.964;2023-02-13T00:04:08;102018.71;;;3.53;86.68
53754;BME280;39667;52.274;20.964;2023-02-13T00:07:18;102023.85;;;3.51;86.86
53754;BME280;39667;52.274;20.964;2023-02-13T00:10:23;102034.19;;;3.52;86.86
53754;BME280;39667;52.274;20.964;2023-02-13T00:13:21;102033.62;;;3.55;86.87
53754;BME280;39667;52.274;20.964;2023-02-13T00:16:10;102030.59;;;3.61;87.10
53754;BME280;39667;52.274;20.964;2023-02-13T00:21:53;102017.52;;;3.65;86.88
53754;BME280;39667;52.274;20.964;2023-02-13T00:24:36;102009.71;;;3.69;86.79
53754;BME280;39667;52.274;20.964;2023-02-13T00:27:54;102006.54;;;3.72;86.57
53754;BME280;39667;52.274;20.964;2023-02-13T00:31:00;102001.89;;;3.70;86.50
53754;BME280;39667;52.274;20.964;2023-02-13T00:33:48;102000.94;;;3.68;86.71
53754;BME280;39667;52.274;20.964;2023-02-13T00:37:19;102009.46;;;3.64;86.61
53754;BME280;39667;52.274;20.964;2023-02-13T00:40:28;102006.26;;;3.66;86.90
53754;BME280;39667;52.274;20.964;2023-02-13T00:44:21;102004.69;;;3.70;86.74
53754;BME280;39667;52.274;20.964;2023-02-13T00:47:40;102011.77;;;3.77;86.81
53754;BME280;39667;52.274;20.964;2023-02-13T00:51:05;102011.21;;;3.83;86.57
53754;BME280;39667;52.274;20.964;2023-02-13T00:54:14;102012.39;;;3.86;86.43
53754;BME280;39667;52.274;20.964;2023-02-13T00:57:06;102011.11;;;3.85;86.29
53754;BME280;39667;52.274;20.964;2023-02-13T01:00:36;102015.05;;;3.88;86.15
53754;BME280;39667;52.274;20.964;2023-02-13T01:03:47;102017.60;;;3.86;86.15
53754;BME280;39667;52.274;20.964;2023-02-13T01:07:06;102020.65;;;3.84;86.02
53754;BME280;39667;52.274;20.964;2023-02-13T01:10:03;102020.02;;;3.82;86.09
53754;BME280;39667;52.274;20.964;2023-02-13T01:13:11;102014.66;;;3.83;86.24
53754;BME280;39667;52.274;20.964;2023-02-13T01:16:27;102011.11;;;3.89;86.21
53754;BME280;39667;52.274;20.964;2023-02-13T01:19:54;102006.98;;;3.90;85.99
53754;BME280;39667;52.274;20.964;2023-02-13T01:23:28;102007.76;;;3.88;85.99
53754;BME280;39667;52.274;20.964;2023-02-13T01:26:56;102003.98;;;3.90;85.99
53754;BME280;39667;52.274;20.964;2023-02-13T01:30:51;101999.69;;;3.91;85.95
53754;BME280;39667;52.274;20.964;2023-02-13T01:34:15;101997.46;;;3.88;85.95
53754;BME280;39667;52.274;20.964;2023-02-13T01:37:32;102003.89;;;3.88;85.99
53754;BME280;39667;52.274;20.964;2023-02-13T01:40:30;102003.20;;;3.91;85.97
53754;BME280;39667;52.274;20.964;2023-02-13T01:43:21;102004.36;;;3.94;85.92
53754;BME280;39667;52.274;20.964;2023-02-13T01:46:07;102004.02;;;3.94;85.66
53754;BME280;39667;52.274;20.964;2023-02-13T01:49:11;102000.23;;;3.91;85.81
53754;BME280;39667;52.274;20.964;2023-02-13T02:02:49;102004.84;;;3.93;85.80
53754;BME280;39667;52.274;20.964;2023-02-13T02:26:18;102006.66;;;4.11;85.35
53754;BME280;39667;52.274;20.964;2023-02-13T02:46:16;101997.47;;;4.20;84.86
53754;BME280;39667;52.274;20.964;2023-02-13T03:03:14;102015.60;;;4.37;84.67
53754;BME280;39667;52.274;20.964;2023-02-13T03:06:47;102016.61;;;4.36;84.54
53754;BME280;39667;52.274;20.964;2023-02-13T03:10:06;102018.19;;;4.32;84.71
53754;BME280;39667;52.274;20.964;2023-02-13T03:17:20;102010.98;;;4.39;84.53
53754;BME280;39667;52.274;20.964;2023-02-13T03:27:29;102003.35;;;4.49;84.21
53754;BME280;39667;52.274;20.964;2023-02-13T03:34:34;102000.56;;;4.44;84.02
53754;BME280;39667;52.274;20.964;2023-02-13T03:44:42;101996.52;;;4.39;84.14
53754;BME280;39667;52.274;20.964;2023-02-13T04:08:40;101990.49;;;4.37;84.28
53754;BME280;39667;52.274;20.964;2023-02-13T04:15:03;101993.72;;;4.35;84.23
53754;BME280;39667;52.274;20.964;2023-02-13T04:22:33;101992.64;;;4.39;84.27
53754;BME280;39667;52.274;20.964;2023-02-13T04:28:52;101996.15;;;4.43;84.37
53754;BME280;39667;52.274;20.964;2023-02-13T04:32:07;101995.23;;;4.46;84.16
53754;BME280;39667;52.274;20.964;2023-02-13T04:35:16;102000.21;;;4.44;84.15
53754;BME280;39667;52.274;20.964;2023-02-13T04:40:53;102006.25;;;4.47;84.07
53754;BME280;39667;52.274;20.964;2023-02-13T04:44:24;102003.97;;;4.47;84.11
53754;BME280;39667;52.274;20.964;2023-02-13T04:54:06;102007.30;;;4.51;83.98
53754;BME280;39667;52.274;20.964;2023-02-13T05:01:09;102002.81;;;4.57;84.11
53754;BME280;39667;52.274;20.964;2023-02-13T05:04:18;101997.31;;;4.59;83.93
53754;BME280;39667;52.274;20.964;2023-02-13T05:07:27;101997.01;;;4.60;83.76
53754;BME280;39667;52.274;20.964;2023-02-13T05:10:06;101994.42;;;4.61;83.75
53754;BME280;39667;52.274;20.964;2023-02-13T05:13:03;101991.55;;;4.59;83.66
53754;BME280;39667;52.274;20.964;2023-02-13T05:15:32;101993.29;;;4.58;83.76
53754;BME280;39667;52.274;20.964;2023-02-13T05:21:02;101990.73;;;4.64;83.81
53754;BME280;39667;52.274;20.964;2023-02-13T05:27:11;102000.44;;;4.67;83.62
53754;BME280;39667;52.274;20.964;2023-02-13T05:30:09;102002.84;;;4.70;83.45
53754;BME280;39667;52.274;20.964;2023-02-13T05:33:53;101997.35;;;4.72;83.36
53754;BME280;39667;52.274;20.964;2023-02-13T05:40:25;101995.30;;;4.65;83.34
53754;BME280;39667;52.274;20.964;2023-02-13T05:44:15;101999.21;;;4.63;83.34
53754;BME280;39667;52.274;20.964;2023-02-13T05:47:24;102000.98;;;4.63;83.24
53754;BME280;39667;52.274;20.964;2023-02-13T05:50:16;102007.36;;;4.61;83.32
53754;BME280;39667;52.274;20.964;2023-02-13T05:52:48;102012.60;;;4.62;83.36
53754;BME280;39667;52.274;20.964;2023-02-13T05:55:41;102013.99;;;4.57;83.32
53754;BME280;39667;52.274;20.964;2023-02-13T05:58:31;102020.02;;;4.60;83.38
53754;BME280;39667;52.274;20.964;2023-02-13T06:01:23;102018.01;;;4.57;83.28
53754;BME280;39667;52.274;20.964;2023-02-13T06:04:13;102018.21;;;4.53;83.21
53754;BME280;39667;52.274;20.964;2023-02-13T06:06:57;102014.97;;;4.51;83.35
53754;BME280;39667;52.274;20.964;2023-02-13T06:09:52;102020.86;;;4.54;83.50
53754;BME280;39667;52.274;20.964;2023-02-13T06:13:00;102021.84;;;4.57;83.39
53754;BME280;39667;52.274;20.964;2023-02-13T06:15:53;102020.19;;;4.59;83.22
53754;BME280;39667;52.274;20.964;2023-02-13T06:18:49;102020.50;;;4.58;83.11
53754;BME280;39667;52.274;20.964;2023-02-13T06:21:26;102013.83;;;4.57;83.08
53754;BME280;39667;52.274;20.964;2023-02-13T06:24:37;102009.44;;;4.57;83.03
53754;BME280;39667;52.274;20.964;2023-02-13T06:28:04;102017.79;;;4.60;83.07
53754;BME280;39667;52.274;20.964;2023-02-13T06:34:50;102016.16;;;4.63;82.96
53754;BME280;39667;52.274;20.964;2023-02-13T06:38:15;102019.46;;;4.67;82.90
53754;BME280;39667;52.274;20.964;2023-02-13T06:48:08;102027.72;;;4.68;82.22
53754;BME280;39667;52.274;20.964;2023-02-13T06:51:24;102022.10;;;4.68;82.24
53754;BME280;39667;52.274;20.964;2023-02-13T06:54:18;102025.56;;;4.66;82.06
53754;BME280;39667;52.274;20.964;2023-02-13T07:00:38;102031.02;;;4.68;81.81
53754;BME280;39667;52.274;20.964;2023-02-13T07:07:10;102018.41;;;4.67;81.82
53754;BME280;39667;52.274;20.964;2023-02-13T07:09:55;102016.67;;;4.67;81.73
53754;BME280;39667;52.274;20.964;2023-02-13T07:12:55;102012.54;;;4.68;81.69
53754;BME280;39667;52.274;20.964;2023-02-13T07:15:36;102016.44;;;4.66;81.59
53754;BME280;39667;52.274;20.964;2023-02-13T07:47:50;102036.77;;;4.93;81.45
53754;BME280;39667;52.274;20.964;2023-02-13T07:50:19;102037.82;;;4.99;81.61
53754;BME280;39667;52.274;20.964;2023-02-13T07:56:33;102035.55;;;4.94;81.75
53754;BME280;39667;52.274;20.964;2023-02-13T08:02:42;102027.76;;;4.95;81.99
53754;BME280;39667;52.274;20.964;2023-02-13T08:05:46;102029.17;;;4.96;81.85
53754;BME280;39667;52.274;20.964;2023-02-13T08:14:30;102030.58;;;4.96;82.29
53754;BME280;39667;52.274;20.964;2023-02-13T08:20:24;102022.64;;;5.07;82.20
53754;BME280;39667;52.274;20.964;2023-02-13T08:29:29;102011.44;;;5.11;81.85
53754;BME280;39667;52.274;20.964;2023-02-13T08:38:32;102014.45;;;5.20;81.46
53754;BME280;39667;52.274;20.964;2023-02-13T08:41:06;102010.39;;;5.25;81.35
53754;BME280;39667;52.274;20.964;2023-02-13T08:43:39;102011.08;;;5.28;81.16
53754;BME280;39667;52.274;20.964;2023-02-13T08:46:11;102007.90;;;5.33;81.11
53754;BME280;39667;52.274;20.964;2023-02-13T08:48:50;102005.77;;;5.36;80.94
53754;BME280;39667;52.274;20.964;2023-02-13T08:51:18;102004.92;;;5.41;80.75
53754;BME280;39667;52.274;20.964;2023-02-13T08:54:06;102000.06;;;5.42;80.47
53754;BME280;39667;52.274;20.964;2023-02-13T08:56:41;101993.21;;;5.41;80.38
53754;BME280;39667;52.274;20.964;2023-02-13T08:59:30;102000.06;;;5.38;80.26
53754;BME280;39667;52.274;20.964;2023-02-13T09:02:01;101998.91;;;5.35;80.39
53754;BME280;39667;52.274;20.964;2023-02-13T09:04:35;101999.38;;;5.33;80.22
53754;BME280;39667;52.274;20.964;2023-02-13T09:07:03;102004.54;;;5.31;80.19
53754;BME280;39667;52.274;20.964;2023-02-13T09:09:35;101999.06;;;5.25;80.11
53754;BME280;39667;52.274;20.964;2023-02-13T09:12:29;101997.05;;;5.23;80.30
53754;BME280;39667;52.274;20.964;2023-02-13T09:15:07;101994.23;;;5.23;80.14
53754;BME280;39667;52.274;20.964;2023-02-13T09:20:59;102000.46;;;5.21;80.38
53754;BME280;39667;52.274;20.964;2023-02-13T09:24:15;102000.73;;;5.23;80.12
53754;BME280;39667;52.274;20.964;2023-02-13T09:26:52;102005.61;;;5.23;80.15
53754;BME280;39667;52.274;20.964;2023-02-13T09:29:36;102003.00;;;5.18;80.05
53754;BME280;39667;52.274;20.964;2023-02-13T09:32:23;102006.78;;;5.17;79.97
53754;BME280;39667;52.274;20.964;2023-02-13T09:35:11;102010.52;;;5.19;79.97
53754;BME280;39667;52.274;20.964;2023-02-13T09:37:52;102004.25;;;5.19;80.10
53754;BME280;39667;52.274;20.964;2023-02-13T09:40:29;102007.27;;;5.20;80.21
53754;BME280;39667;52.274;20.964;2023-02-13T09:43:21;102004.51;;;5.21;80.28
53754;BME280;39667;52.274;20.964;2023-02-13T09:55:57;101985.59;;;5.43;80.28
53754;BME280;39667;52.274;20.964;2023-02-13T10:04:47;101990.96;;;5.56;80.57
53754;BME280;39667;52.274;20.964;2023-02-13T10:13:05;102004.19;;;5.59;80.69
53754;BME280;39667;52.274;20.964;2023-02-13T10:15:53;102007.05;;;5.61;80.74
53754;BME280;39667;52.274;20.964;2023-02-13T10:18:27;102013.14;;;5.65;80.71
53754;BME280;39667;52.274;20.964;2023-02-13T10:21:01;102011.46;;;5.67;80.76
53754;BME280;39667;52.274;20.964;2023-02-13T10:23:32;102014.95;;;5.71;80.74
53754;BME280;39667;52.274;20.964;2023-02-13T10:29:02;102010.53;;;5.70;80.82
53754;BME280;39667;52.274;20.964;2023-02-13T10:31:51;102013.64;;;5.69;80.96
53754;BME280;39667;52.274;20.964;2023-02-13T10:34:30;102009.14;;;5.71;80.91
53754;BME280;39667;52.274;20.964;2023-02-13T10:37:01;102004.08;;;5.70;80.86
53754;BME280;39667;52.274;20.964;2023-02-13T10:39:35;102000.72;;;5.69;80.74
53754;BME280;39667;52.274;20.964;2023-02-13T10:45:03;101989.67;;;5.59;80.74
53754;BME280;39667;52.274;20.964;2023-02-13T10:48:13;101981.52;;;5.56;80.83
53754;BME280;39667;52.274;20.964;2023-02-13T11:04:11;101983.16;;;5.77;81.10
53754;BME280;39667;52.274;20.964;2023-02-13T11:12:45;101973.79;;;5.84;80.95
53754;BME280;39667;52.274;20.964;2023-02-13T11:15:27;101970.84;;;5.80;80.89
53754;BME280;39667;52.274;20.964;2023-02-13T11:24:22;101960.83;;;5.98;80.95
53754;BME280;39667;52.274;20.964;2023-02-13T11:26:56;101952.01;;;5.91;80.60
53754;BME280;39667;52.274;20.964;2023-02-13T11:29:28;101954.15;;;5.82;80.64
53754;BME280;39667;52.274;20.964;2023-02-13T11:34:57;101956.23;;;5.72;80.89
53754;BME280;39667;52.274;20.964;2023-02-13T11:37:34;101957.85;;;5.68;80.95
53754;BME280;39667;52.274;20.964;2023-02-13T11:40:20;101950.71;;;5.64;80.86
53754;BME280;39667;52.274;20.964;2023-02-13T11:42:53;101945.35;;;5.61;80.93
53754;BME280;39667;52.274;20.964;2023-02-13T11:45:27;101946.48;;;5.58;81.17
53754;BME280;39667;52.274;20.964;2023-02-13T11:47:56;101950.46;;;5.57;81.28
53754;BME280;39667;52.274;20.964;2023-02-13T11:50:31;101946.99;;;5.53;81.09
53754;BME280;39667;52.274;20.964;2023-02-13T11:53:26;101943.52;;;5.54;81.36
53754;BME280;39667;52.274;20.964;2023-02-13T11:56:08;101944.69;;;5.57;81.36
53754;BME280;39667;52.274;20.964;2023-02-13T11:59:01;101944.05;;;5.54;80.95
53754;BME280;39667;52.274;20.964;2023-02-13T12:01:31;101940.89;;;5.54;80.97
53754;BME280;39667;52.274;20.964;2023-02-13T12:04:06;101934.90;;;5.53;81.03
53754;BME280;39667;52.274;20.964;2023-02-13T12:07:00;101926.24;;;5.55;80.99
53754;BME280;39667;52.274;20.964;2023-02-13T12:15:50;101905.79;;;5.79;80.58
53754;BME280;39667;52.274;20.964;2023-02-13T12:18:28;101900.20;;;5.85;80.04
53754;BME280;39667;52.274;20.964;2023-02-13T12:21:08;101904.50;;;5.88;79.90
53754;BME280;39667;52.274;20.964;2023-02-13T12:26:44;101913.35;;;5.96;79.48
53754;BME280;39667;52.274;20.964;2023-02-13T12:46:02;101892.64;;;5.83;78.76
53754;BME280;39667;52.274;20.964;2023-02-13T12:49:14;101897.33;;;5.82;78.69
53754;BME280;39667;52.274;20.964;2023-02-13T12:55:47;101881.06;;;5.77;78.73
53754;BME280;39667;52.274;20.964;2023-02-13T13:07:23;101864.92;;;5.91;78.69
53754;BME280;39667;52.274;20.964;2023-02-13T13:10:00;101852.16;;;5.96;78.54
53754;BME280;39667;52.274;20.964;2023-02-13T13:23:04;101838.08;;;6.36;77.99
53754;BME280;39667;52.274;20.964;2023-02-13T13:25:55;101838.59;;;6.41;77.76
53754;BME280;39667;52.274;20.964;2023-02-13T13:28:29;101840.41;;;6.43;77.34
53754;BME280;39667;52.274;20.964;2023-02-13T13:31:01;101837.13;;;6.45;77.44
53754;BME280;39667;52.274;20.964;2023-02-13T13:33:33;101830.27;;;6.44;76.92
53754;BME280;39667;52.274;20.964;2023-02-13T13:44:25;101840.24;;;6.27;76.56
53754;BME280;39667;52.274;20.964;2023-02-13T13:49:59;101839.13;;;6.31;76.42
53754;BME280;39667;52.274;20.964;2023-02-13T13:52:38;101840.41;;;6.32;76.53
53754;BME280;39667;52.274;20.964;2023-02-13T13:55:09;101832.05;;;6.34;76.49
53754;BME280;39667;52.274;20.964;2023-02-13T13:57:57;101820.05;;;6.30;76.24
53754;BME280;39667;52.274;20.964;2023-02-13T14:00:33;101822.54;;;6.26;76.21
53754;BME280;39667;52.274;20.964;2023-02-13T14:20:58;101827.39;;;5.82;76.58
53754;BME280;39667;52.274;20.964;2023-02-13T14:23:35;101821.70;;;5.79;76.88
53754;BME280;39667;52.274;20.964;2023-02-13T14:26:11;101817.05;;;5.76;76.66
